sensor_id;sensor_type;location;lat;lon;timestamp;temperature;humidity
75899;DHT22;64576;50.460;4.866;2023-07-02T00:00:17;14.26;83.43
75899;DHT22;64576;50.460;4.866;2023-07-02T00:02:42;14.23;83.50
75899;DHT22;64576;50.460;4.866;2023-07-02T00:05:08;14.23;83.65
75899;DHT22;64576;50.460;4.866;2023-07-02T00:07:34;14.23;83.69
75899;DHT22;64576;50.460;4.866;2023-07-02T00:10:01;14.23;83.72
75899;DHT22;64576;50.460;4.866;2023-07-02T00:12:26;14.30;83.56
75899;DHT22;64576;50.460;4.866;2023-07-02T00:14:52;14.34;83.54
75899;DHT22;64576;50.460;4.866;2023-07-02T00:17:18;14.34;83.53
75899;DHT22;64576;50.460;4.866;2023-07-02T00:19:44;14.37;83.58
75899;DHT22;64576;50.460;4.866;2023-07-02T00:22:11;14.39;83.59
75899;DHT22;64576;50.460;4.866;2023-07-02T00:24:37;14.40;83.50
75899;DHT22;64576;50.460;4.866;2023-07-02T00:27:03;14.37;83.67
75899;DHT22;64576;50.460;4.866;2023-07-02T00:29:29;14.43;83.62
75899;DHT22;64576;50.460;4.866;2023-07-02T00:31:54;14.44;83.59
75899;DHT22;64576;50.460;4.866;2023-07-02T00:34:20;14.48;83.47
75899;DHT22;64576;50.460;4.866;2023-07-02T00:36:46;14.51;83.40
75899;DHT22;64576;50.460;4.866;2023-07-02T00:39:12;14.51;83.45
75899;DHT22;64576;50.460;4.866;2023-07-02T00:41:38;14.47;83.45
75899;DHT22;64576;50.460;4.866;2023-07-02T00:44:03;14.48;83.55
75899;DHT22;64576;50.460;4.866;2023-07-02T00:46:30;14.46;83.68
75899;DHT22;64576;50.460;4.866;2023-07-02T00:48:56;14.48;83.46
75899;DHT22;64576;50.460;4.866;2023-07-02T00:51:24;14.54;83.49
75899;DHT22;64576;50.460;4.866;2023-07-02T00:53:51;14.47;83.63
75899;DHT22;64576;50.460;4.866;2023-07-02T00:56:17;14.50;83.69
75899;DHT22;64576;50.460;4.866;2023-07-02T00:58:47;14.56;83.50
75899;DHT22;64576;50.460;4.866;2023-07-02T01:01:22;14.56;83.40
75899;DHT22;64576;50.460;4.866;2023-07-02T01:06:25;14.47;83.71
75899;DHT22;64576;50.460;4.866;2023-07-02T01:08:55;14.48;83.68
75899;DHT22;64576;50.460;4.866;2023-07-02T01:11:23;14.40;83.88
75899;DHT22;64576;50.460;4.866;2023-07-02T01:13:51;14.33;84.16
75899;DHT22;64576;50.460;4.866;2023-07-02T01:16:20;14.28;84.37
75899;DHT22;64576;50.460;4.866;2023-07-02T01:18:46;14.22;84.58
75899;DHT22;64576;50.460;4.866;2023-07-02T01:21:11;14.19;84.78
75899;DHT22;64576;50.460;4.866;2023-07-02T01:23:37;14.13;84.79
75899;DHT22;64576;50.460;4.866;2023-07-02T01:26:02;14.13;84.81
75899;DHT22;64576;50.460;4.866;2023-07-02T01:28:34;14.22;84.61
75899;DHT22;64576;50.460;4.866;2023-07-02T01:31:00;14.15;84.83
75899;DHT22;64576;50.460;4.866;2023-07-02T01:33:26;14.15;84.96
75899;DHT22;64576;50.460;4.866;2023-07-02T01:35:51;14.15;84.99
75899;DHT22;64576;50.460;4.866;2023-07-02T01:38:16;14.16;85.17
75899;DHT22;64576;50.460;4.866;2023-07-02T01:40:42;14.02;85.45
75899;DHT22;64576;50.460;4.866;2023-07-02T01:43:07;13.98;85.63
75899;DHT22;64576;50.460;4.866;2023-07-02T01:45:33;13.95;85.92
75899;DHT22;64576;50.460;4.866;2023-07-02T01:47:58;13.97;85.85
75899;DHT22;64576;50.460;4.866;2023-07-02T01:50:23;13.95;85.92
75899;DHT22;64576;50.460;4.866;2023-07-02T01:52:49;13.86;86.27
75899;DHT22;64576;50.460;4.866;2023-07-02T01:55:14;13.85;86.30
75899;DHT22;64576;50.460;4.866;2023-07-02T01:57:40;13.88;86.24
75899;DHT22;64576;50.460;4.866;2023-07-02T02:00:05;13.85;86.33
75899;DHT22;64576;50.460;4.866;2023-07-02T02:02:32;13.73;86.76
75899;DHT22;64576;50.460;4.866;2023-07-02T02:04:57;13.68;86.94
75899;DHT22;64576;50.460;4.866;2023-07-02T02:07:23;13.67;86.93
75899;DHT22;64576;50.460;4.866;2023-07-02T02:09:48;13.57;87.31
75899;DHT22;64576;50.460;4.866;2023-07-02T02:12:13;13.58;87.35
75899;DHT22;64576;50.460;4.866;2023-07-02T02:14:39;13.60;87.47
75899;DHT22;64576;50.460;4.866;2023-07-02T02:17:04;13.51;87.61
75899;DHT22;64576;50.460;4.866;2023-07-02T02:19:30;13.53;87.75
75899;DHT22;64576;50.460;4.866;2023-07-02T02:21:55;13.58;87.60
75899;DHT22;64576;50.460;4.866;2023-07-02T02:24:20;13.54;87.80
75899;DHT22;64576;50.460;4.866;2023-07-02T02:26:46;13.55;87.87
75899;DHT22;64576;50.460;4.866;2023-07-02T02:29:11;13.64;87.81
75899;DHT22;64576;50.460;4.866;2023-07-02T02:31:37;13.58;87.99
75899;DHT22;64576;50.460;4.866;2023-07-02T02:34:03;13.57;88.16
75899;DHT22;64576;50.460;4.866;2023-07-02T02:36:28;13.53;88.29
75899;DHT22;64576;50.460;4.866;2023-07-02T02:38:54;13.48;88.52
75899;DHT22;64576;50.460;4.866;2023-07-02T02:41:19;13.48;88.66
75899;DHT22;64576;50.460;4.866;2023-07-02T02:43:45;13.54;88.55
75899;DHT22;64576;50.460;4.866;2023-07-02T02:46:11;13.54;88.69
75899;DHT22;64576;50.460;4.866;2023-07-02T02:48:37;13.58;88.65
75899;DHT22;64576;50.460;4.866;2023-07-02T02:51:02;13.46;88.96
75899;DHT22;64576;50.460;4.866;2023-07-02T02:53:27;13.42;89.26
75899;DHT22;64576;50.460;4.866;2023-07-02T02:55:53;13.42;89.31
75899;DHT22;64576;50.460;4.866;2023-07-02T02:58:18;13.36;89.49
75899;DHT22;64576;50.460;4.866;2023-07-02T03:00:44;13.43;89.44
75899;DHT22;64576;50.460;4.866;2023-07-02T03:03:14;13.46;89.33
75899;DHT22;64576;50.460;4.866;2023-07-02T03:05:42;13.47;89.24
75899;DHT22;64576;50.460;4.866;2023-07-02T03:08:09;13.50;89.23
75899;DHT22;64576;50.460;4.866;2023-07-02T03:10:34;13.58;89.13
75899;DHT22;64576;50.460;4.866;2023-07-02T03:13:00;13.60;89.02
75899;DHT22;64576;50.460;4.866;2023-07-02T03:15:25;13.67;88.95
75899;DHT22;64576;50.460;4.866;2023-07-02T03:17:50;13.68;88.76
75899;DHT22;64576;50.460;4.866;2023-07-02T03:20:16;13.70;88.80
75899;DHT22;64576;50.460;4.866;2023-07-02T03:22:42;13.74;88.88
75899;DHT22;64576;50.460;4.866;2023-07-02T03:25:08;13.77;88.82
75899;DHT22;64576;50.460;4.866;2023-07-02T03:27:33;13.74;88.93
75899;DHT22;64576;50.460;4.866;2023-07-02T03:29:59;13.75;88.94
75899;DHT22;64576;50.460;4.866;2023-07-02T03:32:24;13.74;89.10
75899;DHT22;64576;50.460;4.866;2023-07-02T03:34:49;13.73;89.25
75899;DHT22;64576;50.460;4.866;2023-07-02T03:37:15;13.74;89.36
75899;DHT22;64576;50.460;4.866;2023-07-02T03:39:40;13.71;89.46
75899;DHT22;64576;50.460;4.866;2023-07-02T03:42:06;13.71;89.58
75899;DHT22;64576;50.460;4.866;2023-07-02T03:44:31;13.67;89.72
75899;DHT22;64576;50.460;4.866;2023-07-02T03:46:56;13.68;89.86
75899;DHT22;64576;50.460;4.866;2023-07-02T03:49:22;13.71;89.88
75899;DHT22;64576;50.460;4.866;2023-07-02T03:51:47;13.70;89.81
75899;DHT22;64576;50.460;4.866;2023-07-02T03:54:13;13.73;89.79
75899;DHT22;64576;50.460;4.866;2023-07-02T03:56:38;13.74;89.74
75899;DHT22;64576;50.460;4.866;2023-07-02T03:59:03;13.74;89.80
75899;DHT22;64576;50.460;4.866;2023-07-02T04:01:29;13.71;89.92
75899;DHT22;64576;50.460;4.866;2023-07-02T04:03:55;13.74;89.91
75899;DHT22;64576;50.460;4.866;2023-07-02T04:06:21;13.73;89.97
75899;DHT22;64576;50.460;4.866;2023-07-02T04:08:46;13.70;89.93
75899;DHT22;64576;50.460;4.866;2023-07-02T04:11:12;13.71;90.03
75899;DHT22;64576;50.460;4.866;2023-07-02T04:13:38;13.68;90.03
75899;DHT22;64576;50.460;4.866;2023-07-02T04:16:04;13.73;89.93
75899;DHT22;64576;50.460;4.866;2023-07-02T04:18:29;13.75;89.83
75899;DHT22;64576;50.460;4.866;2023-07-02T04:20:55;13.77;89.82
75899;DHT22;64576;50.460;4.866;2023-07-02T04:23:21;13.79;89.56
75899;DHT22;64576;50.460;4.866;2023-07-02T04:25:46;13.78;89.63
75899;DHT22;64576;50.460;4.866;2023-07-02T04:28:12;13.75;89.68
75899;DHT22;64576;50.460;4.866;2023-07-02T04:30:37;13.78;89.70
75899;DHT22;64576;50.460;4.866;2023-07-02T04:33:02;13.82;89.61
75899;DHT22;64576;50.460;4.866;2023-07-02T04:35:28;13.84;89.49
75899;DHT22;64576;50.460;4.866;2023-07-02T04:37:53;13.86;89.46
75899;DHT22;64576;50.460;4.866;2023-07-02T04:40:18;13.82;89.55
75899;DHT22;64576;50.460;4.866;2023-07-02T04:42:44;13.86;89.45
75899;DHT22;64576;50.460;4.866;2023-07-02T04:45:13;13.91;89.25
75899;DHT22;64576;50.460;4.866;2023-07-02T04:47:42;13.94;89.25
75899;DHT22;64576;50.460;4.866;2023-07-02T04:50:07;13.98;89.08
75899;DHT22;64576;50.460;4.866;2023-07-02T04:52:32;14.01;88.97
75899;DHT22;64576;50.460;4.866;2023-07-02T04:54:58;13.99;89.07
75899;DHT22;64576;50.460;4.866;2023-07-02T04:57:23;13.94;89.26
75899;DHT22;64576;50.460;4.866;2023-07-02T04:59:49;13.88;89.55
75899;DHT22;64576;50.460;4.866;2023-07-02T05:02:14;13.85;89.63
75899;DHT22;64576;50.460;4.866;2023-07-02T05:04:39;13.77;89.85
75899;DHT22;64576;50.460;4.866;2023-07-02T05:07:05;13.74;90.10
75899;DHT22;64576;50.460;4.866;2023-07-02T05:09:31;13.73;90.21
75899;DHT22;64576;50.460;4.866;2023-07-02T05:11:57;13.78;90.14
75899;DHT22;64576;50.460;4.866;2023-07-02T05:14:22;13.79;89.95
75899;DHT22;64576;50.460;4.866;2023-07-02T05:16:48;13.89;89.62
75899;DHT22;64576;50.460;4.866;2023-07-02T05:19:14;14.08;89.11
75899;DHT22;64576;50.460;4.866;2023-07-02T05:21:39;14.16;88.75
75899;DHT22;64576;50.460;4.866;2023-07-02T05:24:05;14.25;88.34
75899;DHT22;64576;50.460;4.866;2023-07-02T05:26:30;14.41;87.93
75899;DHT22;64576;50.460;4.866;2023-07-02T05:28:56;14.51;87.51
75899;DHT22;64576;50.460;4.866;2023-07-02T05:31:21;14.53;87.24
75899;DHT22;64576;50.460;4.866;2023-07-02T05:33:46;14.68;86.95
75899;DHT22;64576;50.460;4.866;2023-07-02T05:36:12;14.85;86.27
75899;DHT22;64576;50.460;4.866;2023-07-02T05:38:37;15.08;85.90
75899;DHT22;64576;50.460;4.866;2023-07-02T05:41:03;15.26;84.91
75899;DHT22;64576;50.460;4.866;2023-07-02T05:43:29;15.43;84.39
75899;DHT22;64576;50.460;4.866;2023-07-02T05:45:54;15.49;84.15
75899;DHT22;64576;50.460;4.866;2023-07-02T05:48:20;15.53;83.94
75899;DHT22;64576;50.460;4.866;2023-07-02T05:50:45;16.06;82.51
75899;DHT22;64576;50.460;4.866;2023-07-02T05:53:10;15.94;82.10
75899;DHT22;64576;50.460;4.866;2023-07-02T05:55:36;15.93;81.98
75899;DHT22;64576;50.460;4.866;2023-07-02T05:58:02;16.09;82.39
75899;DHT22;64576;50.460;4.866;2023-07-02T06:00:28;16.29;81.58
75899;DHT22;64576;50.460;4.866;2023-07-02T06:02:54;16.19;81.41
75899;DHT22;64576;50.460;4.866;2023-07-02T06:05:19;15.95;82.24
75899;DHT22;64576;50.460;4.866;2023-07-02T06:07:44;15.76;83.11
75899;DHT22;64576;50.460;4.866;2023-07-02T06:10:10;15.66;83.54
75899;DHT22;64576;50.460;4.866;2023-07-02T06:12:35;15.61;83.79
75899;DHT22;64576;50.460;4.866;2023-07-02T06:15:00;15.60;83.70
75899;DHT22;64576;50.460;4.866;2023-07-02T06:17:26;16.00;82.79
75899;DHT22;64576;50.460;4.866;2023-07-02T06:19:51;16.09;82.62
75899;DHT22;64576;50.460;4.866;2023-07-02T06:22:17;15.78;83.06
75899;DHT22;64576;50.460;4.866;2023-07-02T06:24:42;16.15;82.74
75899;DHT22;64576;50.460;4.866;2023-07-02T06:27:07;16.52;81.69
75899;DHT22;64576;50.460;4.866;2023-07-02T06:29:33;16.16;82.24
75899;DHT22;64576;50.460;4.866;2023-07-02T06:31:59;16.48;81.37
75899;DHT22;64576;50.460;4.866;2023-07-02T06:34:24;16.59;81.66
75899;DHT22;64576;50.460;4.866;2023-07-02T06:36:50;17.08;79.80
75899;DHT22;64576;50.460;4.866;2023-07-02T06:39:15;17.22;79.12
75899;DHT22;64576;50.460;4.866;2023-07-02T06:41:40;17.00;79.81
75899;DHT22;64576;50.460;4.866;2023-07-02T06:44:06;17.15;79.33
75899;DHT22;64576;50.460;4.866;2023-07-02T06:46:31;16.87;79.55
75899;DHT22;64576;50.460;4.866;2023-07-02T06:48:57;16.67;80.69
75899;DHT22;64576;50.460;4.866;2023-07-02T06:51:22;16.41;80.92
75899;DHT22;64576;50.460;4.866;2023-07-02T06:53:48;16.30;81.52
75899;DHT22;64576;50.460;4.866;2023-07-02T06:56:14;16.36;81.56
75899;DHT22;64576;50.460;4.866;2023-07-02T06:58:42;16.38;81.38
75899;DHT22;64576;50.460;4.866;2023-07-02T07:01:07;16.46;81.38
75899;DHT22;64576;50.460;4.866;2023-07-02T07:03:33;16.87;80.16
75899;DHT22;64576;50.460;4.866;2023-07-02T07:06:00;17.03;79.71
75899;DHT22;64576;50.460;4.866;2023-07-02T07:08:26;17.31;79.36
75899;DHT22;64576;50.460;4.866;2023-07-02T07:10:51;17.17;78.94
75899;DHT22;64576;50.460;4.866;2023-07-02T07:13:16;17.08;79.57
75899;DHT22;64576;50.460;4.866;2023-07-02T07:15:42;17.10;79.52
75899;DHT22;64576;50.460;4.866;2023-07-02T07:18:08;17.22;79.36
75899;DHT22;64576;50.460;4.866;2023-07-02T07:20:34;17.39;78.82
75899;DHT22;64576;50.460;4.866;2023-07-02T07:22:59;17.39;78.89
75899;DHT22;64576;50.460;4.866;2023-07-02T07:25:24;17.26;78.95
75899;DHT22;64576;50.460;4.866;2023-07-02T07:27:51;17.26;79.27
75899;DHT22;64576;50.460;4.866;2023-07-02T07:30:16;17.62;78.02
75899;DHT22;64576;50.460;4.866;2023-07-02T07:32:47;17.32;78.05
75899;DHT22;64576;50.460;4.866;2023-07-02T07:35:13;17.72;77.65
75899;DHT22;64576;50.460;4.866;2023-07-02T07:37:38;18.32;76.41
75899;DHT22;64576;50.460;4.866;2023-07-02T07:40:04;18.07;76.69
75899;DHT22;64576;50.460;4.866;2023-07-02T07:42:31;18.89;74.89
75899;DHT22;64576;50.460;4.866;2023-07-02T07:44:56;18.52;74.37
75899;DHT22;64576;50.460;4.866;2023-07-02T07:47:21;18.00;76.41
75899;DHT22;64576;50.460;4.866;2023-07-02T07:49:47;18.19;75.50
75899;DHT22;64576;50.460;4.866;2023-07-02T07:52:12;18.15;76.11
75899;DHT22;64576;50.460;4.866;2023-07-02T07:54:38;18.44;75.05
75899;DHT22;64576;50.460;4.866;2023-07-02T07:57:04;18.65;74.53
75899;DHT22;64576;50.460;4.866;2023-07-02T07:59:29;18.70;74.45
75899;DHT22;64576;50.460;4.866;2023-07-02T08:01:55;19.00;73.62
75899;DHT22;64576;50.460;4.866;2023-07-02T08:04:20;18.84;73.33
75899;DHT22;64576;50.460;4.866;2023-07-02T08:06:45;19.00;73.42
75899;DHT22;64576;50.460;4.866;2023-07-02T08:09:11;19.97;71.16
75899;DHT22;64576;50.460;4.866;2023-07-02T08:11:37;19.55;71.54
75899;DHT22;64576;50.460;4.866;2023-07-02T08:14:02;19.76;70.93
75899;DHT22;64576;50.460;4.866;2023-07-02T08:16:27;20.52;68.99
75899;DHT22;64576;50.460;4.866;2023-07-02T08:18:53;21.68;66.69
75899;DHT22;64576;50.460;4.866;2023-07-02T08:21:18;20.52;68.28
75899;DHT22;64576;50.460;4.866;2023-07-02T08:23:43;20.13;69.19
75899;DHT22;64576;50.460;4.866;2023-07-02T08:26:09;20.40;69.46
75899;DHT22;64576;50.460;4.866;2023-07-02T08:28:36;20.27;69.08
75899;DHT22;64576;50.460;4.866;2023-07-02T08:31:03;20.52;69.33
75899;DHT22;64576;50.460;4.866;2023-07-02T08:33:28;20.87;67.46
75899;DHT22;64576;50.460;4.866;2023-07-02T08:35:54;22.55;63.52
75899;DHT22;64576;50.460;4.866;2023-07-02T08:38:19;22.12;63.02
75899;DHT22;64576;50.460;4.866;2023-07-02T08:40:45;22.30;63.00
75899;DHT22;64576;50.460;4.866;2023-07-02T08:43:10;22.67;61.21
75899;DHT22;64576;50.460;4.866;2023-07-02T08:45:36;22.61;60.58
75899;DHT22;64576;50.460;4.866;2023-07-02T08:48:02;22.94;60.52
75899;DHT22;64576;50.460;4.866;2023-07-02T08:50:27;21.83;63.73
75899;DHT22;64576;50.460;4.866;2023-07-02T08:52:53;21.52;64.08
75899;DHT22;64576;50.460;4.866;2023-07-02T08:55:19;22.50;61.20
75899;DHT22;64576;50.460;4.866;2023-07-02T08:57:53;22.73;59.95
75899;DHT22;64576;50.460;4.866;2023-07-02T09:00:19;23.06;60.06
75899;DHT22;64576;50.460;4.866;2023-07-02T09:02:45;22.44;61.81
75899;DHT22;64576;50.460;4.866;2023-07-02T09:05:12;21.99;62.23
75899;DHT22;64576;50.460;4.866;2023-07-02T09:07:47;20.99;63.97
75899;DHT22;64576;50.460;4.866;2023-07-02T09:10:30;19.94;62.07
75899;DHT22;64576;50.460;4.866;2023-07-02T09:13:07;19.63;63.66
75899;DHT22;64576;50.460;4.866;2023-07-02T09:15:38;19.62;65.76
75899;DHT22;64576;50.460;4.866;2023-07-02T09:18:22;19.66;64.31
75899;DHT22;64576;50.460;4.866;2023-07-02T09:20:53;19.94;63.46
75899;DHT22;64576;50.460;4.866;2023-07-02T09:23:19;19.41;64.80
75899;DHT22;64576;50.460;4.866;2023-07-02T09:25:45;20.34;62.92
75899;DHT22;64576;50.460;4.866;2023-07-02T09:28:18;21.07;57.44
75899;DHT22;64576;50.460;4.866;2023-07-02T09:30:57;21.06;54.53
75899;DHT22;64576;50.460;4.866;2023-07-02T09:33:24;20.67;55.30
75899;DHT22;64576;50.460;4.866;2023-07-02T09:35:49;20.40;54.74
75899;DHT22;64576;50.460;4.866;2023-07-02T09:38:16;20.85;53.52
75899;DHT22;64576;50.460;4.866;2023-07-02T09:40:45;20.99;51.98
75899;DHT22;64576;50.460;4.866;2023-07-02T09:43:13;20.76;52.65
75899;DHT22;64576;50.460;4.866;2023-07-02T09:45:45;20.82;53.95
75899;DHT22;64576;50.460;4.866;2023-07-02T09:48:14;20.49;54.50
75899;DHT22;64576;50.460;4.866;2023-07-02T09:50:44;20.04;54.75
75899;DHT22;64576;50.460;4.866;2023-07-02T09:53:10;19.41;56.46
75899;DHT22;64576;50.460;4.866;2023-07-02T09:55:42;18.96;57.24
75899;DHT22;64576;50.460;4.866;2023-07-02T09:58:07;18.94;57.51
75899;DHT22;64576;50.460;4.866;2023-07-02T10:00:33;19.04;57.73
75899;DHT22;64576;50.460;4.866;2023-07-02T10:02:59;19.01;58.26
75899;DHT22;64576;50.460;4.866;2023-07-02T10:05:29;19.49;57.83
75899;DHT22;64576;50.460;4.866;2023-07-02T10:08:11;19.73;57.31
75899;DHT22;64576;50.460;4.866;2023-07-02T10:10:37;19.93;56.64
75899;DHT22;64576;50.460;4.866;2023-07-02T10:13:03;21.30;54.66
75899;DHT22;64576;50.460;4.866;2023-07-02T10:15:29;21.22;54.26
75899;DHT22;64576;50.460;4.866;2023-07-02T10:18:01;20.82;54.66
75899;DHT22;64576;50.460;4.866;2023-07-02T10:20:38;20.53;55.55
75899;DHT22;64576;50.460;4.866;2023-07-02T10:23:06;20.27;55.78
75899;DHT22;64576;50.460;4.866;2023-07-02T10:25:39;20.17;56.37
75899;DHT22;64576;50.460;4.866;2023-07-02T10:28:20;20.27;57.43
75899;DHT22;64576;50.460;4.866;2023-07-02T10:30:47;20.89;55.85
75899;DHT22;64576;50.460;4.866;2023-07-02T10:33:14;21.99;53.12
75899;DHT22;64576;50.460;4.866;2023-07-02T10:35:42;22.30;53.06
75899;DHT22;64576;50.460;4.866;2023-07-02T10:38:25;21.78;52.24
75899;DHT22;64576;50.460;4.866;2023-07-02T10:43:25;20.51;54.99
75899;DHT22;64576;50.460;4.866;2023-07-02T10:45:51;20.06;54.74
75899;DHT22;64576;50.460;4.866;2023-07-02T10:48:16;19.93;55.87
75899;DHT22;64576;50.460;4.866;2023-07-02T10:50:41;20.10;55.20
75899;DHT22;64576;50.460;4.866;2023-07-02T10:53:19;20.34;54.36
75899;DHT22;64576;50.460;4.866;2023-07-02T10:55:45;20.53;53.85
75899;DHT22;64576;50.460;4.866;2023-07-02T10:58:11;20.76;53.87
75899;DHT22;64576;50.460;4.866;2023-07-02T11:00:47;20.85;53.89
75899;DHT22;64576;50.460;4.866;2023-07-02T11:05:46;19.92;56.99
75899;DHT22;64576;50.460;4.866;2023-07-02T11:08:12;19.49;58.54
75899;DHT22;64576;50.460;4.866;2023-07-02T11:10:37;19.56;57.89
75899;DHT22;64576;50.460;4.866;2023-07-02T11:13:21;20.10;57.27
75899;DHT22;64576;50.460;4.866;2023-07-02T11:15:47;20.20;57.12
75899;DHT22;64576;50.460;4.866;2023-07-02T11:18:15;20.64;56.55
75899;DHT22;64576;50.460;4.866;2023-07-02T11:20:43;22.09;52.51
75899;DHT22;64576;50.460;4.866;2023-07-02T11:23:22;21.98;52.92
75899;DHT22;64576;50.460;4.866;2023-07-02T11:26:00;22.61;51.13
75899;DHT22;64576;50.460;4.866;2023-07-02T11:28:27;22.43;52.38
75899;DHT22;64576;50.460;4.866;2023-07-02T11:30:53;21.68;53.40
75899;DHT22;64576;50.460;4.866;2023-07-02T11:33:20;21.28;54.69
75899;DHT22;64576;50.460;4.866;2023-07-02T11:35:46;21.08;55.41
75899;DHT22;64576;50.460;4.866;2023-07-02T11:38:11;21.14;55.23
75899;DHT22;64576;50.460;4.866;2023-07-02T11:40:37;20.82;55.75
75899;DHT22;64576;50.460;4.866;2023-07-02T11:43:02;20.71;56.75
75899;DHT22;64576;50.460;4.866;2023-07-02T11:45:28;20.56;57.15
75899;DHT22;64576;50.460;4.866;2023-07-02T11:47:54;20.59;57.00
75899;DHT22;64576;50.460;4.866;2023-07-02T11:50:19;21.20;56.15
75899;DHT22;64576;50.460;4.866;2023-07-02T11:52:45;23.43;51.02
75899;DHT22;64576;50.460;4.866;2023-07-02T11:55:11;24.35;49.29
75899;DHT22;64576;50.460;4.866;2023-07-02T11:57:36;23.39;50.30
75899;DHT22;64576;50.460;4.866;2023-07-02T12:00:02;21.98;53.73
75899;DHT22;64576;50.460;4.866;2023-07-02T12:02:27;21.35;56.16
75899;DHT22;64576;50.460;4.866;2023-07-02T12:04:53;21.22;56.46
75899;DHT22;64576;50.460;4.866;2023-07-02T12:07:18;21.33;56.90
75899;DHT22;64576;50.460;4.866;2023-07-02T12:09:43;21.35;55.38
75899;DHT22;64576;50.460;4.866;2023-07-02T12:12:10;21.38;55.54
75899;DHT22;64576;50.460;4.866;2023-07-02T12:14:35;21.19;56.27
75899;DHT22;64576;50.460;4.866;2023-07-02T12:17:02;21.74;55.40
75899;DHT22;64576;50.460;4.866;2023-07-02T12:19:27;22.02;54.14
75899;DHT22;64576;50.460;4.866;2023-07-02T12:21:52;21.83;54.45
75899;DHT22;64576;50.460;4.866;2023-07-02T12:24:18;21.90;55.02
75899;DHT22;64576;50.460;4.866;2023-07-02T12:26:43;22.68;54.01
75899;DHT22;64576;50.460;4.866;2023-07-02T12:29:08;23.77;51.56
75899;DHT22;64576;50.460;4.866;2023-07-02T12:31:34;23.39;52.08
75899;DHT22;64576;50.460;4.866;2023-07-02T12:33:59;23.06;51.75
75899;DHT22;64576;50.460;4.866;2023-07-02T12:36:25;22.75;53.29
75899;DHT22;64576;50.460;4.866;2023-07-02T12:38:50;23.12;49.79
75899;DHT22;64576;50.460;4.866;2023-07-02T12:41:15;23.42;49.78
75899;DHT22;64576;50.460;4.866;2023-07-02T12:43:41;22.72;51.82
75899;DHT22;64576;50.460;4.866;2023-07-02T12:46:06;22.75;51.69
75899;DHT22;64576;50.460;4.866;2023-07-02T12:48:32;22.76;52.55
75899;DHT22;64576;50.460;4.866;2023-07-02T12:50:58;22.24;53.57
75899;DHT22;64576;50.460;4.866;2023-07-02T12:53:25;22.73;53.70
75899;DHT22;64576;50.460;4.866;2023-07-02T12:55:50;23.79;51.20
75899;DHT22;64576;50.460;4.866;2023-07-02T12:58:16;23.61;52.11
75899;DHT22;64576;50.460;4.866;2023-07-02T13:00:41;23.44;52.03
75899;DHT22;64576;50.460;4.866;2023-07-02T13:03:10;22.95;53.27
75899;DHT22;64576;50.460;4.866;2023-07-02T13:05:36;22.50;55.00
75899;DHT22;64576;50.460;4.866;2023-07-02T13:08:01;21.92;56.93
75899;DHT22;64576;50.460;4.866;2023-07-02T13:10:29;22.33;56.11
75899;DHT22;64576;50.460;4.866;2023-07-02T13:12:55;23.99;52.49
75899;DHT22;64576;50.460;4.866;2023-07-02T13:15:20;23.86;52.42
75899;DHT22;64576;50.460;4.866;2023-07-02T13:17:45;25.08;49.04
75899;DHT22;64576;50.460;4.866;2023-07-02T13:20:11;24.87;49.83
75899;DHT22;64576;50.460;4.866;2023-07-02T13:22:36;24.56;49.45
75899;DHT22;64576;50.460;4.866;2023-07-02T13:25:03;25.40;48.38
75899;DHT22;64576;50.460;4.866;2023-07-02T13:27:28;24.77;49.17
75899;DHT22;64576;50.460;4.866;2023-07-02T13:29:53;23.55;51.40
75899;DHT22;64576;50.460;4.866;2023-07-02T13:32:19;23.46;51.82
75899;DHT22;64576;50.460;4.866;2023-07-02T13:34:44;23.12;53.17
75899;DHT22;64576;50.460;4.866;2023-07-02T13:37:10;23.13;53.32
75899;DHT22;64576;50.460;4.866;2023-07-02T13:39:35;22.98;53.32
75899;DHT22;64576;50.460;4.866;2023-07-02T13:42:00;22.53;54.38
75899;DHT22;64576;50.460;4.866;2023-07-02T13:44:26;22.18;55.28
75899;DHT22;64576;50.460;4.866;2023-07-02T13:46:51;22.17;55.69
75899;DHT22;64576;50.460;4.866;2023-07-02T13:49:18;22.40;55.42
75899;DHT22;64576;50.460;4.866;2023-07-02T13:51:44;22.85;54.20
75899;DHT22;64576;50.460;4.866;2023-07-02T13:54:12;22.02;55.29
75899;DHT22;64576;50.460;4.866;2023-07-02T13:56:37;21.69;56.01
75899;DHT22;64576;50.460;4.866;2023-07-02T13:59:03;21.44;56.56
75899;DHT22;64576;50.460;4.866;2023-07-02T14:01:29;21.28;57.23
75899;DHT22;64576;50.460;4.866;2023-07-02T14:03:54;21.42;57.57
75899;DHT22;64576;50.460;4.866;2023-07-02T14:06:20;21.04;57.90
75899;DHT22;64576;50.460;4.866;2023-07-02T14:08:46;21.11;57.91
75899;DHT22;64576;50.460;4.866;2023-07-02T14:11:12;21.22;58.04
75899;DHT22;64576;50.460;4.866;2023-07-02T14:13:37;21.65;57.24
75899;DHT22;64576;50.460;4.866;2023-07-02T14:16:03;22.32;55.74
75899;DHT22;64576;50.460;4.866;2023-07-02T14:18:28;24.36;51.65
75899;DHT22;64576;50.460;4.866;2023-07-02T14:20:53;23.57;51.71
75899;DHT22;64576;50.460;4.866;2023-07-02T14:23:19;22.85;52.10
75899;DHT22;64576;50.460;4.866;2023-07-02T14:25:44;22.10;54.19
75899;DHT22;64576;50.460;4.866;2023-07-02T14:28:10;21.68;54.89
75899;DHT22;64576;50.460;4.866;2023-07-02T14:30:35;22.13;54.60
75899;DHT22;64576;50.460;4.866;2023-07-02T14:33:01;23.54;51.79
75899;DHT22;64576;50.460;4.866;2023-07-02T14:35:26;25.05;49.27
75899;DHT22;64576;50.460;4.866;2023-07-02T14:37:54;23.05;52.61
75899;DHT22;64576;50.460;4.866;2023-07-02T14:40:20;23.16;52.36
75899;DHT22;64576;50.460;4.866;2023-07-02T14:42:46;24.02;50.55
75899;DHT22;64576;50.460;4.866;2023-07-02T14:45:11;23.20;52.38
75899;DHT22;64576;50.460;4.866;2023-07-02T14:47:37;22.79;52.81
75899;DHT22;64576;50.460;4.866;2023-07-02T14:50:04;22.60;53.66
75899;DHT22;64576;50.460;4.866;2023-07-02T14:52:29;22.72;54.15
75899;DHT22;64576;50.460;4.866;2023-07-02T14:54:55;22.81;53.19
75899;DHT22;64576;50.460;4.866;2023-07-02T14:57:21;22.48;53.70
75899;DHT22;64576;50.460;4.866;2023-07-02T14:59:47;22.32;54.22
75899;DHT22;64576;50.460;4.866;2023-07-02T15:02:15;21.63;55.59
75899;DHT22;64576;50.460;4.866;2023-07-02T15:04:40;22.16;54.48
75899;DHT22;64576;50.460;4.866;2023-07-02T15:07:06;21.77;55.02
75899;DHT22;64576;50.460;4.866;2023-07-02T15:09:31;21.93;53.87
75899;DHT22;64576;50.460;4.866;2023-07-02T15:11:57;21.59;54.93
75899;DHT22;64576;50.460;4.866;2023-07-02T15:14:22;22.02;53.97
75899;DHT22;64576;50.460;4.866;2023-07-02T15:16:48;22.45;51.96
75899;DHT22;64576;50.460;4.866;2023-07-02T15:19:13;21.90;53.42
75899;DHT22;64576;50.460;4.866;2023-07-02T15:21:41;21.78;53.80
75899;DHT22;64576;50.460;4.866;2023-07-02T15:24:06;22.72;52.38
75899;DHT22;64576;50.460;4.866;2023-07-02T15:26:35;24.15;49.28
75899;DHT22;64576;50.460;4.866;2023-07-02T15:29:00;24.66;48.26
75899;DHT22;64576;50.460;4.866;2023-07-02T15:31:26;23.98;48.59